createdAt,value
2019-02-17T00:02:19.997Z,12.00
2019-02-17T00:04:48.429Z,11.37
2019-02-17T00:07:16.899Z,12.43
2019-02-17T00:09:45.401Z,12.03
2019-02-17T00:12:13.843Z,10.60
2019-02-17T00:14:42.251Z,11.20
2019-02-17T00:17:10.704Z,11.80
2019-02-17T00:19:39.143Z,12.10
2019-02-17T00:22:07.568Z,12.47
2019-02-17T00:24:35.997Z,12.77
2019-02-17T00:27:04.428Z,16.77
2019-02-17T00:29:32.935Z,12.47
2019-02-17T00:32:01.344Z,12.17
2019-02-17T00:34:29.796Z,9.97
2019-02-17T00:36:58.205Z,10.20
2019-02-17T00:39:26.651Z,10.07
2019-02-17T00:41:55.048Z,10.57
2019-02-17T00:44:23.544Z,10.77
2019-02-17T00:46:51.960Z,10.57
2019-02-17T00:49:20.395Z,10.50
2019-02-17T00:51:48.821Z,10.27
2019-02-17T00:54:17.243Z,12.20
2019-02-17T00:56:45.688Z,10.20
2019-02-17T00:59:14.137Z,10.20
2019-02-17T01:01:42.559Z,9.97
2019-02-17T01:04:11.074Z,10.07
2019-02-17T01:06:39.509Z,9.93
2019-02-17T01:09:07.951Z,9.83
2019-02-17T01:11:36.373Z,9.47
2019-02-17T01:14:04.886Z,9.27
2019-02-17T01:16:33.310Z,9.70
2019-02-17T01:19:01.770Z,8.03
2019-02-17T01:21:30.187Z,8.73
2019-02-17T01:23:58.630Z,10.13
2019-02-17T01:26:27.103Z,9.40
2019-02-17T01:28:55.559Z,10.13
2019-02-17T01:31:23.972Z,11.67
2019-02-17T01:33:52.412Z,12.67
2019-02-17T01:36:20.901Z,15.90
2019-02-17T01:38:49.366Z,13.17
2019-02-17T01:41:17.761Z,14.47
2019-02-17T01:43:46.228Z,11.47
2019-02-17T01:46:14.647Z,9.97
2019-02-17T01:48:43.074Z,9.80
2019-02-17T01:51:11.478Z,9.73
2019-02-17T01:53:39.896Z,9.47
2019-02-17T01:56:08.336Z,9.33
2019-02-17T01:58:36.741Z,8.10
2019-02-17T02:01:05.165Z,9.37
2019-02-17T02:03:33.567Z,10.97
2019-02-17T02:06:02.040Z,10.27
2019-02-17T02:08:30.445Z,9.33
2019-02-17T02:10:58.872Z,9.00
2019-02-17T02:13:33.258Z,8.57
2019-02-17T02:16:01.701Z,8.47
2019-02-17T02:18:30.178Z,8.70
2019-02-17T02:20:58.666Z,8.70
2019-02-17T02:23:27.072Z,8.97
2019-02-17T02:25:55.503Z,7.47
2019-02-17T02:28:23.903Z,8.07
2019-02-17T02:30:52.349Z,9.40
2019-02-17T02:33:20.770Z,10.17
2019-02-17T02:35:49.212Z,13.77
2019-02-17T02:38:17.714Z,13.67
2019-02-17T02:40:46.133Z,15.80
2019-02-17T02:43:14.546Z,15.63
2019-02-17T02:45:42.960Z,19.17
2019-02-17T02:48:11.375Z,23.23
2019-02-17T02:50:39.790Z,20.87
2019-02-17T02:53:08.270Z,15.13
2019-02-17T02:55:36.703Z,12.73
2019-02-17T02:58:05.131Z,11.33
2019-02-17T03:00:33.558Z,11.30
2019-02-17T03:03:01.973Z,10.77
2019-02-17T03:05:30.400Z,9.20
2019-02-17T03:07:58.803Z,9.97
2019-02-17T03:10:27.226Z,9.70
2019-02-17T03:12:55.638Z,9.67
2019-02-17T03:15:24.090Z,9.70
2019-02-17T03:17:52.503Z,9.63
2019-02-17T03:20:20.945Z,9.50
2019-02-17T03:22:49.339Z,9.97
2019-02-17T03:25:17.749Z,9.37
2019-02-17T03:27:46.157Z,9.30
2019-02-17T03:30:14.589Z,7.97
2019-02-17T03:32:43.026Z,9.03
2019-02-17T03:35:11.447Z,8.13
2019-02-17T03:37:39.859Z,8.47
2019-02-17T03:40:09.413Z,8.73
2019-02-17T03:42:37.827Z,9.50
2019-02-17T03:45:08.999Z,8.87
2019-02-17T03:47:37.407Z,8.23
2019-02-17T03:50:07.076Z,8.83
2019-02-17T03:52:35.489Z,9.40
2019-02-17T03:55:04.370Z,9.10
2019-02-17T03:57:32.775Z,8.80
2019-02-17T04:00:01.200Z,9.23
2019-02-17T04:02:29.630Z,9.03
2019-02-17T04:04:58.049Z,9.30
2019-02-17T04:07:26.475Z,9.37
2019-02-17T04:09:54.963Z,9.40
2019-02-17T04:12:23.402Z,9.80
2019-02-17T04:14:51.801Z,11.77
2019-02-17T04:17:20.227Z,10.57
2019-02-17T04:19:48.692Z,11.50
2019-02-17T04:22:17.117Z,12.30
2019-02-17T04:24:45.597Z,10.27
2019-02-17T04:27:14.022Z,9.80
2019-02-17T04:29:42.431Z,10.27
2019-02-17T04:32:10.872Z,10.33
2019-02-17T04:34:39.313Z,8.83
2019-02-17T04:37:07.723Z,9.73
2019-02-17T04:39:36.172Z,10.13
2019-02-17T04:42:04.582Z,8.67
2019-02-17T04:44:33.016Z,9.40
2019-02-17T04:47:01.471Z,8.43
2019-02-17T04:49:29.905Z,9.47
2019-02-17T04:51:58.319Z,8.90
2019-02-17T04:54:26.808Z,8.73
2019-02-17T04:56:55.231Z,8.60
2019-02-17T04:59:23.660Z,8.47
2019-02-17T05:01:52.071Z,8.80
2019-02-17T05:04:20.500Z,8.47
2019-02-17T05:06:48.905Z,8.70
2019-02-17T05:09:17.388Z,8.93
2019-02-17T05:11:45.805Z,8.90
2019-02-17T05:14:14.220Z,8.10
2019-02-17T05:16:42.645Z,8.97
2019-02-17T05:19:11.063Z,8.63
2019-02-17T05:21:39.490Z,7.97
2019-02-17T05:24:07.957Z,8.03
2019-02-17T05:26:36.436Z,7.97
2019-02-17T05:29:04.866Z,7.83
2019-02-17T05:31:33.286Z,8.00
2019-02-17T05:34:01.719Z,7.80
2019-02-17T05:36:29.819Z,7.47
2019-02-17T05:38:57.906Z,7.83
2019-02-17T05:41:25.998Z,8.07
2019-02-17T05:43:54.100Z,8.00
2019-02-17T05:46:22.183Z,7.37
2019-02-17T05:48:50.308Z,7.23
2019-02-17T05:51:18.379Z,7.50
2019-02-17T05:53:46.451Z,8.23
2019-02-17T05:56:14.558Z,7.80
2019-02-17T05:58:42.631Z,7.47
2019-02-17T06:01:10.729Z,7.77
2019-02-17T06:03:38.828Z,7.23
2019-02-17T06:06:06.960Z,7.73
2019-02-17T06:08:35.090Z,8.00
2019-02-17T06:11:03.201Z,6.63
2019-02-17T06:13:31.344Z,7.70
2019-02-17T06:15:59.445Z,8.33
2019-02-17T06:18:27.530Z,7.07
2019-02-17T06:20:55.647Z,7.50
2019-02-17T06:23:23.716Z,6.93
2019-02-17T06:25:51.822Z,7.00
2019-02-17T06:28:19.894Z,7.27
2019-02-17T06:30:47.983Z,7.37
2019-02-17T06:33:16.069Z,6.80
2019-02-17T06:35:44.177Z,6.80
2019-02-17T06:38:12.266Z,7.47
2019-02-17T06:40:40.356Z,36.20
2019-02-17T06:43:08.435Z,8.83
2019-02-17T06:45:36.615Z,8.17
2019-02-17T06:48:04.729Z,9.93
2019-02-17T06:50:32.992Z,7.03
2019-02-17T06:53:01.170Z,8.30
2019-02-17T06:55:30.917Z,8.03
2019-02-17T06:57:58.983Z,7.40
2019-02-17T07:00:31.415Z,7.73
2019-02-17T07:02:59.498Z,7.77
2019-02-17T07:05:45.519Z,7.57
2019-02-17T07:08:13.620Z,7.47
2019-02-17T07:10:41.710Z,7.43
2019-02-17T07:13:09.805Z,7.43
2019-02-17T07:15:37.902Z,7.63
2019-02-17T07:18:05.993Z,6.87
2019-02-17T07:20:34.080Z,6.77
2019-02-17T07:23:02.169Z,11.67
2019-02-17T07:25:30.652Z,7.20
2019-02-17T07:27:58.836Z,6.43
2019-02-17T07:30:26.934Z,6.57
2019-02-17T07:32:55.004Z,6.77
2019-02-17T07:35:23.092Z,6.83
2019-02-17T07:37:51.159Z,7.30
2019-02-17T07:40:19.315Z,8.30
2019-02-17T07:42:47.399Z,6.50
2019-02-17T07:45:15.472Z,6.30
2019-02-17T07:47:43.551Z,6.40
2019-02-17T07:50:11.699Z,6.97
2019-02-17T07:52:39.796Z,7.43
2019-02-17T07:55:08.854Z,6.67
2019-02-17T07:57:36.953Z,7.30
2019-02-17T08:00:06.639Z,7.57
2019-02-17T08:02:34.775Z,7.93
2019-02-17T08:05:02.846Z,6.93
2019-02-17T08:07:31.279Z,6.90
2019-02-17T08:10:00.738Z,6.73
2019-02-17T08:12:29.191Z,6.60
2019-02-17T08:14:57.287Z,6.17
2019-02-17T08:17:25.694Z,6.70
2019-02-17T08:19:54.095Z,6.83
2019-02-17T08:22:22.552Z,7.13
2019-02-17T08:24:50.960Z,6.90
2019-02-17T08:27:19.390Z,6.73
2019-02-17T08:29:47.789Z,7.20
2019-02-17T08:32:16.224Z,6.43
2019-02-17T08:34:44.660Z,7.67
2019-02-17T08:37:13.278Z,7.63
2019-02-17T08:39:41.820Z,6.90
2019-02-17T08:42:10.237Z,8.40
2019-02-17T08:44:38.650Z,8.90
2019-02-17T08:47:07.060Z,6.73
2019-02-17T08:49:35.460Z,7.97
2019-02-17T08:52:03.882Z,7.53
2019-02-17T08:54:32.283Z,9.00
2019-02-17T08:57:00.703Z,12.27
2019-02-17T08:59:29.151Z,8.57
2019-02-17T09:02:05.634Z,8.90
2019-02-17T09:04:27.779Z,9.47
2019-02-17T09:06:56.284Z,8.97
2019-02-17T09:09:24.695Z,9.20
2019-02-17T09:11:53.176Z,9.10
2019-02-17T09:14:21.579Z,9.50
2019-02-17T09:16:50.007Z,9.67
2019-02-17T09:19:18.474Z,9.90
2019-02-17T09:21:46.987Z,12.03
2019-02-17T09:24:15.440Z,10.43
2019-02-17T09:26:43.871Z,11.03
2019-02-17T09:29:12.411Z,9.87
2019-02-17T09:31:40.835Z,9.77
2019-02-17T09:34:09.248Z,9.63
2019-02-17T09:36:37.692Z,9.93
2019-02-17T09:39:08.224Z,9.90
2019-02-17T09:41:36.646Z,9.43
2019-02-17T09:44:05.058Z,10.03
2019-02-17T09:46:33.506Z,9.50
2019-02-17T09:49:01.924Z,9.13
2019-02-17T09:51:30.326Z,8.87
2019-02-17T09:53:58.798Z,8.83
2019-02-17T09:56:27.199Z,8.50
2019-02-17T09:58:55.656Z,8.13
2019-02-17T10:01:24.082Z,7.27
2019-02-17T10:03:52.518Z,7.63
2019-02-17T10:06:20.919Z,6.50
2019-02-17T10:08:49.345Z,6.73
2019-02-17T10:11:17.756Z,7.03
2019-02-17T10:13:46.239Z,6.10
2019-02-17T10:16:14.744Z,6.40
2019-02-17T10:18:43.131Z,5.67
2019-02-17T10:21:11.527Z,6.00
2019-02-17T10:23:39.985Z,6.20
2019-02-17T10:26:08.404Z,5.80
2019-02-17T10:28:42.418Z,5.00
2019-02-17T10:31:06.972Z,5.17
2019-02-17T10:33:35.383Z,5.57
2019-02-17T10:36:03.796Z,5.27
2019-02-17T10:38:32.244Z,4.83
2019-02-17T10:41:00.655Z,4.73
2019-02-17T10:43:29.096Z,4.33
2019-02-17T10:45:57.496Z,4.03
2019-02-17T10:48:25.932Z,4.40
2019-02-17T10:50:54.341Z,3.93
2019-02-17T10:53:22.779Z,3.70
2019-02-17T10:55:51.196Z,4.33
2019-02-17T10:58:19.632Z,3.60
2019-02-17T11:00:48.055Z,3.30
2019-02-17T11:03:16.500Z,3.77
2019-02-17T11:05:44.908Z,3.63
2019-02-17T11:08:13.459Z,3.50
2019-02-17T11:10:41.898Z,3.43
2019-02-17T11:13:10.342Z,2.83
2019-02-17T11:15:38.791Z,3.00
2019-02-17T11:18:07.242Z,3.00
2019-02-17T11:20:35.652Z,2.73
2019-02-17T11:23:04.108Z,2.93
2019-02-17T11:25:32.517Z,3.13
2019-02-17T11:28:00.969Z,3.10
2019-02-17T11:30:29.376Z,3.40
2019-02-17T11:32:58.378Z,2.70
2019-02-17T11:35:26.867Z,3.27
2019-02-17T11:37:55.282Z,2.77
2019-02-17T11:40:23.704Z,3.20
2019-02-17T11:42:52.187Z,2.67
2019-02-17T11:45:20.737Z,2.77
2019-02-17T11:47:49.196Z,2.87
2019-02-17T11:50:17.636Z,2.80
2019-02-17T11:52:46.041Z,2.57
2019-02-17T11:55:15.727Z,2.50
2019-02-17T11:57:44.143Z,3.07
2019-02-17T12:00:20.354Z,2.57
2019-02-17T12:02:48.840Z,2.70
2019-02-17T12:05:17.425Z,3.00
2019-02-17T12:07:45.831Z,2.63
2019-02-17T12:10:14.262Z,3.17
2019-02-17T12:12:42.662Z,2.53
2019-02-17T12:15:12.955Z,2.70
2019-02-17T12:17:41.359Z,3.10
2019-02-17T12:20:22.859Z,2.60
2019-02-17T12:22:52.918Z,3.10
2019-02-17T12:25:22.990Z,2.80
2019-02-17T12:27:53.020Z,2.80
2019-02-17T12:30:21.465Z,2.70
2019-02-17T12:32:49.893Z,2.70
2019-02-17T12:35:18.340Z,2.17
2019-02-17T12:37:47.371Z,2.10
2019-02-17T12:40:16.057Z,2.37
2019-02-17T12:42:44.517Z,2.40
2019-02-17T12:45:17.993Z,2.23
2019-02-17T12:47:43.954Z,2.00
2019-02-17T12:50:12.832Z,1.87
2019-02-17T12:52:47.216Z,2.00
2019-02-17T12:55:11.402Z,2.10
2019-02-17T12:57:39.791Z,1.80
2019-02-17T13:00:12.003Z,1.90
2019-02-17T13:02:40.425Z,1.93
2019-02-17T13:05:09.896Z,1.90
2019-02-17T13:07:38.327Z,1.60
2019-02-17T13:10:09.396Z,1.60
2019-02-17T13:12:37.804Z,1.73
2019-02-17T13:15:09.375Z,1.70
2019-02-17T13:17:37.859Z,1.70
2019-02-17T13:20:09.207Z,1.80
2019-02-17T13:22:37.616Z,2.13
2019-02-17T13:25:09.116Z,1.70
2019-02-17T13:27:37.538Z,1.97
2019-02-17T13:30:17.826Z,1.77
2019-02-17T13:32:46.227Z,2.08
2019-02-17T13:35:14.664Z,2.07
2019-02-17T13:37:43.088Z,2.17
2019-02-17T13:40:13.543Z,1.90
2019-02-17T13:42:41.963Z,1.80
2019-02-17T13:45:12.618Z,2.00
2019-02-17T13:47:41.059Z,1.87
2019-02-17T13:50:11.913Z,2.00
2019-02-17T13:52:40.314Z,1.60
2019-02-17T13:55:09.584Z,1.97
2019-02-17T13:57:38.079Z,1.53
2019-02-17T14:00:09.912Z,1.97
2019-02-17T14:02:38.319Z,1.80
2019-02-17T14:05:07.384Z,1.50
2019-02-17T14:07:35.796Z,1.90
2019-02-17T14:10:06.575Z,2.10
2019-02-17T14:12:34.972Z,1.80
2019-02-17T14:15:04.458Z,1.97
2019-02-17T14:17:32.864Z,1.80
2019-02-17T14:20:01.299Z,1.83
2019-02-17T14:22:29.696Z,2.30
2019-02-17T14:24:58.096Z,1.90
2019-02-17T14:27:26.528Z,1.70
2019-02-17T14:29:54.939Z,1.70
2019-02-17T14:32:23.376Z,2.00
2019-02-17T14:34:51.794Z,1.90
2019-02-17T14:37:20.279Z,1.90
2019-02-17T14:39:49.018Z,2.00
2019-02-17T14:42:17.548Z,1.90
2019-02-17T14:44:45.952Z,2.70
2019-02-17T14:47:14.386Z,2.10
2019-02-17T14:49:42.794Z,2.07
2019-02-17T14:52:11.220Z,2.00
2019-02-17T14:54:39.634Z,2.10
2019-02-17T14:57:08.082Z,4.57
2019-02-17T14:59:36.490Z,2.70
2019-02-17T15:02:04.939Z,2.63
2019-02-17T15:04:33.347Z,1.70
2019-02-17T15:07:01.785Z,2.30
2019-02-17T15:09:30.179Z,1.73
2019-02-17T15:11:58.705Z,1.80
2019-02-17T15:14:27.124Z,1.70
2019-02-17T15:16:55.577Z,1.93
2019-02-17T15:19:24.841Z,2.30
2019-02-17T15:21:53.311Z,2.20
2019-02-17T15:24:21.733Z,2.10
2019-02-17T15:26:50.170Z,1.90
2019-02-17T15:29:18.603Z,5.43
2019-02-17T15:31:47.046Z,2.00
2019-02-17T15:34:18.743Z,2.33
2019-02-17T15:36:46.042Z,2.87
2019-02-17T15:39:14.591Z,2.33
2019-02-17T15:41:43.052Z,2.00
2019-02-17T15:44:11.479Z,1.40
2019-02-17T15:46:39.920Z,1.80
2019-02-17T15:49:08.315Z,1.80
2019-02-17T15:51:36.748Z,1.90
2019-02-17T15:54:05.223Z,1.70
2019-02-17T15:56:33.655Z,1.80
2019-02-17T15:59:02.060Z,1.50
2019-02-17T16:01:30.505Z,1.70
2019-02-17T16:03:58.918Z,2.00
2019-02-17T16:06:27.341Z,1.50
2019-02-17T16:08:55.744Z,2.00
2019-02-17T16:11:24.189Z,2.07
2019-02-17T16:13:52.599Z,1.70
2019-02-17T16:16:21.024Z,2.60
2019-02-17T16:18:49.462Z,1.93
2019-02-17T16:21:17.867Z,1.90
2019-02-17T16:23:46.311Z,2.20
2019-02-17T16:26:14.707Z,2.17
2019-02-17T16:28:43.157Z,2.23
2019-02-17T16:31:11.557Z,2.27
2019-02-17T16:33:40.005Z,1.80
2019-02-17T16:36:08.406Z,2.20
2019-02-17T16:38:36.831Z,2.20
2019-02-17T16:41:05.261Z,2.50
2019-02-17T16:43:33.738Z,2.30
2019-02-17T16:46:02.152Z,2.13
2019-02-17T16:48:30.580Z,2.50
2019-02-17T16:51:00.956Z,2.03
2019-02-17T16:53:29.164Z,2.00
2019-02-17T16:55:57.584Z,2.33
2019-02-17T16:58:26.011Z,2.67
2019-02-17T17:00:54.435Z,2.37
2019-02-17T17:03:22.892Z,3.07
2019-02-17T17:05:51.306Z,2.60
2019-02-17T17:08:19.780Z,11.40
2019-02-17T17:10:48.238Z,9.57
2019-02-17T17:13:16.735Z,18.00
2019-02-17T17:15:45.138Z,7.97
2019-02-17T17:18:13.627Z,3.27
2019-02-17T17:20:42.032Z,3.10
2019-02-17T17:23:10.477Z,7.50
2019-02-17T17:25:38.908Z,10.07
2019-02-17T17:28:07.407Z,5.10
2019-02-17T17:30:35.821Z,5.07
2019-02-17T17:33:04.264Z,4.57
2019-02-17T17:35:32.668Z,4.03
2019-02-17T17:38:01.104Z,4.40
2019-02-17T17:40:29.545Z,4.13
2019-02-17T17:42:58.008Z,3.67
2019-02-17T17:45:26.439Z,4.60
2019-02-17T17:47:54.891Z,3.20
2019-02-17T17:50:23.273Z,3.13
2019-02-17T17:52:51.732Z,3.00
2019-02-17T17:55:20.165Z,3.70
2019-02-17T17:57:48.627Z,21.73
2019-02-17T18:00:24.432Z,17.37
2019-02-17T18:02:52.866Z,4.97
2019-02-17T18:05:21.266Z,6.97
2019-02-17T18:07:49.773Z,10.17
2019-02-17T18:10:18.187Z,6.13
2019-02-17T18:12:46.681Z,7.10
2019-02-17T18:15:17.684Z,13.07
2019-02-17T18:17:53.808Z,12.60
2019-02-17T18:20:16.475Z,5.27
2019-02-17T18:22:45.030Z,5.37
2019-02-17T18:25:14.304Z,6.83
2019-02-17T18:27:42.935Z,6.00
2019-02-17T18:30:18.673Z,4.83
2019-02-17T18:32:47.110Z,4.33
2019-02-17T18:35:19.868Z,6.27
2019-02-17T18:37:45.893Z,6.57
2019-02-17T18:40:15.974Z,5.37
2019-02-17T18:42:44.429Z,4.00
2019-02-17T18:45:14.063Z,4.60
2019-02-17T18:47:42.514Z,4.67
2019-02-17T18:50:18.268Z,5.37
2019-02-17T18:52:46.838Z,22.23
2019-02-17T18:55:15.757Z,5.23
2019-02-17T18:57:50.237Z,4.13
2019-02-17T19:00:20.124Z,13.40
2019-02-17T19:02:48.555Z,3.53
2019-02-17T19:05:17.005Z,3.83
2019-02-17T19:07:45.440Z,15.50
2019-02-17T19:10:14.636Z,4.00
2019-02-17T19:12:43.350Z,14.17
2019-02-17T19:15:19.938Z,30.20
2019-02-17T19:17:48.423Z,10.57
2019-02-17T19:20:25.424Z,12.43
2019-02-17T19:22:55.782Z,8.83
2019-02-17T19:25:25.156Z,16.47
2019-02-17T19:27:53.569Z,12.60
2019-02-17T19:30:31.328Z,12.70
2019-02-17T19:32:59.840Z,10.03
2019-02-17T19:35:28.401Z,9.27
2019-02-17T19:37:56.897Z,38.03
2019-02-17T19:40:25.435Z,29.43
2019-02-17T19:42:53.873Z,13.33
2019-02-17T19:45:25.463Z,9.60
2019-02-17T19:47:53.909Z,8.90
2019-02-17T19:50:22.387Z,6.23
2019-02-17T19:52:50.905Z,5.17
2019-02-17T19:55:19.342Z,5.30
2019-02-17T19:57:47.899Z,5.90
2019-02-17T20:00:21.577Z,4.97
2019-02-17T20:03:10.082Z,5.07
2019-02-17T20:05:51.725Z,5.43
2019-02-17T20:08:13.369Z,7.70
2019-02-17T20:10:42.381Z,5.47
2019-02-17T20:13:11.032Z,5.63
2019-02-17T20:15:39.657Z,9.37
2019-02-17T20:18:08.236Z,5.10
2019-02-17T20:20:36.870Z,6.23
2019-02-17T20:23:05.595Z,5.80
2019-02-17T20:25:34.188Z,5.17
2019-02-17T20:28:02.742Z,4.57
2019-02-17T20:30:31.253Z,5.23
2019-02-17T20:32:59.861Z,28.77
2019-02-17T20:35:31.479Z,6.87
2019-02-17T20:38:07.675Z,23.17
2019-02-17T20:40:36.194Z,6.77
2019-02-17T20:43:04.786Z,6.17
2019-02-17T20:45:33.371Z,7.80
2019-02-17T20:48:03.965Z,5.37
2019-02-17T20:50:32.427Z,4.30
2019-02-17T20:53:00.876Z,4.90
2019-02-17T20:55:37.105Z,4.73
2019-02-17T20:58:05.566Z,4.80
2019-02-17T21:00:34.481Z,6.00
2019-02-17T21:03:02.927Z,17.83
2019-02-17T21:05:31.448Z,5.70
2019-02-17T21:08:00.055Z,4.83
2019-02-17T21:10:28.473Z,4.53
2019-02-17T21:13:08.747Z,5.60
2019-02-17T21:15:37.612Z,5.73
2019-02-17T21:18:06.927Z,5.50
2019-02-17T21:20:35.392Z,5.27
2019-02-17T21:23:03.783Z,4.50
2019-02-17T21:25:51.585Z,4.40
2019-02-17T21:28:19.979Z,4.10
2019-02-17T21:30:50.550Z,4.00
2019-02-17T21:33:18.705Z,4.30
2019-02-17T21:35:47.190Z,4.97
2019-02-17T21:38:15.643Z,4.40
2019-02-17T21:40:44.069Z,5.17
2019-02-17T21:43:12.480Z,4.90
2019-02-17T21:45:40.911Z,4.60
2019-02-17T21:48:09.419Z,5.20
2019-02-17T21:50:37.847Z,4.90
2019-02-17T21:53:06.249Z,5.83
2019-02-17T21:55:34.749Z,6.30
2019-02-17T21:58:03.174Z,6.07
2019-02-17T22:00:33.266Z,6.80
2019-02-17T22:03:01.673Z,5.47
2019-02-17T22:05:30.070Z,5.03
2019-02-17T22:07:58.528Z,8.17
2019-02-17T22:10:26.935Z,8.07
2019-02-17T22:12:55.369Z,7.53
2019-02-17T22:15:24.269Z,18.10
2019-02-17T22:17:52.739Z,6.60
2019-02-17T22:20:21.164Z,3.93
2019-02-17T22:22:49.558Z,4.30
2019-02-17T22:25:18.044Z,4.73
2019-02-17T22:27:46.594Z,4.40
2019-02-17T22:30:15.948Z,4.97
2019-02-17T22:32:44.555Z,4.80
2019-02-17T22:35:12.959Z,18.30
2019-02-17T22:37:41.405Z,5.33
2019-02-17T22:40:14.581Z,5.30
2019-02-17T22:42:43.077Z,4.13
2019-02-17T22:45:12.127Z,6.23
2019-02-17T22:47:40.655Z,8.00
2019-02-17T22:50:10.926Z,7.90
2019-02-17T22:52:39.344Z,4.93
2019-02-17T22:55:14.404Z,10.17
2019-02-17T22:57:42.926Z,5.20
2019-02-17T23:00:19.717Z,4.60
2019-02-17T23:02:48.220Z,3.97
2019-02-17T23:05:16.678Z,4.50
2019-02-17T23:07:45.109Z,4.40
2019-02-17T23:10:13.666Z,9.90
2019-02-17T23:12:42.094Z,4.20
2019-02-17T23:15:10.626Z,4.40
2019-02-17T23:17:39.052Z,4.53
2019-02-17T23:20:08.125Z,6.10
2019-02-17T23:22:36.734Z,6.63
2019-02-17T23:25:07.848Z,7.37
2019-02-17T23:27:36.281Z,4.83
2019-02-17T23:30:06.883Z,4.50
2019-02-17T23:32:35.336Z,4.07
2019-02-17T23:35:04.229Z,4.80
2019-02-17T23:37:32.653Z,4.83
2019-02-17T23:40:01.079Z,5.13
2019-02-17T23:42:29.526Z,4.53
2019-02-17T23:44:57.935Z,5.10
2019-02-17T23:47:26.357Z,4.90
2019-02-17T23:49:54.759Z,5.33
2019-02-17T23:52:23.199Z,4.57
2019-02-17T23:54:51.584Z,5.10
2019-02-17T23:57:20.020Z,5.00
2019-02-17T23:59:48.459Z,5.17
